Time;durP1;ratioP1;P1;durP2;ratioP2;P2;SDS_P1;SDS_P2;PMS_P1;PMS_P2;Temp;Humidity;BMP_temperature;BMP_pressure;BME280_temperature;BME280_humidity;BME280_pressure;Samples;Min_cycle;Max_cycle;Signal;HPM_P1;HPM_P2
2023/07/31 00:00:26;;;;;;;;;;;;;;;23.60;40.29;101039.59;5068025;28;19917;-82
2023/07/31 00:02:52;;;;;;;;;;;;;;;23.56;40.51;101027.69;5062957;28;19987;-83
2023/07/31 00:05:17;;;;;;;;;;;;;;;23.55;40.68;101023.34;5065054;28;20027;-83
2023/07/31 00:07:43;;;;;;;;;;;;;;;23.60;40.65;101020.44;5064398;28;19923;-83
2023/07/31 00:10:08;;;;;;;;;;;;;;;23.62;40.54;101031.84;5068324;28;19920;-82
2023/07/31 00:12:34;;;;;;;;;;;;;;;23.60;40.53;101039.59;5062414;28;19920;-83
2023/07/31 00:14:59;;;;;;;;;;;;;;;23.57;40.74;101037.50;5071551;28;19920;-82
2023/07/31 00:17:24;;;;;;;;;;;;;;;23.55;40.76;101028.81;5063361;28;20594;-83
2023/07/31 00:19:50;;;;;;;;;;;;;;;23.64;40.58;101035.06;5068359;28;19917;-83
2023/07/31 00:22:16;;;;;;;;;;;;;;;23.68;40.55;101032.47;5066380;28;19917;-82
2023/07/31 00:24:41;;;;;;;;;;;;;;;23.75;40.41;101032.75;5062483;28;19948;-82
2023/07/31 00:27:06;;;;;;;;;;;;;;;23.76;40.47;101023.44;5065713;28;20486;-83
2023/07/31 00:29:32;;;;;;;;;;;;;;;23.74;40.59;101015.56;5069952;28;19959;-83
2023/07/31 00:31:57;;;;;;;;;;;;;;;23.73;40.44;101024.09;5067160;28;19924;-83
2023/07/31 00:34:22;;;;;;;;;;;;;;;23.72;40.63;101017.81;5066995;28;20400;-83
2023/07/31 00:36:48;;;;;;;;;;;;;;;23.70;40.37;101014.63;5064769;28;19948;-83
2023/07/31 00:39:13;;;;;;;;;;;;;;;23.71;40.44;101007.22;5067085;28;19921;-83
2023/07/31 00:41:39;;;;;;;;;;;;;;;23.68;40.72;101005.09;5068941;28;20003;-83
2023/07/31 00:44:04;;;;;;;;;;;;;;;23.71;40.66;101012.69;5065911;28;20024;-82
2023/07/31 00:46:29;;;;;;;;;;;;;;;23.70;40.70;101014.63;5064755;28;19923;-82
2023/07/31 00:48:55;;;;;;;;;;;;;;;23.70;40.69;101022.03;5063339;28;19917;-82
2023/07/31 00:51:20;;;;;;;;;;;;;;;23.66;40.83;101010.91;5066854;28;19983;-82
2023/07/31 00:53:46;;;;;;;;;;;;;;;23.63;40.88;101010.78;5062292;28;20434;-83
2023/07/31 00:56:12;;;;;;;;;;;;;;;23.65;41.19;101012.03;5062155;28;19916;-82
2023/07/31 00:58:37;;;;;;;;;;;;;;;23.69;41.00;101017.66;5067568;28;19969;-82
2023/07/31 01:01:02;;;;;;;;;;;;;;;23.67;40.90;101015.25;5068568;28;20070;-82
2023/07/31 01:03:28;;;;;;;;;;;;;;;23.69;41.07;101012.97;5070030;28;19943;-82
2023/07/31 01:06:26;;;;;;;;;;;;;;;23.71;41.03;101009.94;5064984;28;20292;-82
2023/07/31 01:08:57;;;;;;;;;;;;;;;23.69;41.01;101012.19;5038533;28;19923;-82
2023/07/31 01:11:34;;;;;;;;;;;;;;;23.67;41.20;101009.78;5064572;28;19924;-82
2023/07/31 01:14:00;;;;;;;;;;;;;;;23.65;41.33;101012.03;5065390;28;19927;-82
2023/07/31 01:16:26;;;;;;;;;;;;;;;23.64;41.40;101010.44;5067993;28;19916;-82
2023/07/31 01:18:52;;;;;;;;;;;;;;;23.60;41.48;101014.16;5070044;28;19923;-82
2023/07/31 01:21:35;;;;;;;;;;;;;;;23.54;41.52;101008.06;5065609;28;19916;-82
2023/07/31 01:24:13;;;;;;;;;;;;;;;23.52;41.77;101002.94;5067843;28;19924;-83
2023/07/31 01:26:39;;;;;;;;;;;;;;;23.52;41.73;101002.13;5065447;28;20380;-82
2023/07/31 01:29:15;;;;;;;;;;;;;;;23.48;41.84;100991.00;5065776;28;19924;-82
2023/07/31 01:31:41;;;;;;;;;;;;;;;23.45;41.86;100991.69;5065574;28;19920;-82
2023/07/31 01:34:08;;;;;;;;;;;;;;;23.41;42.14;100985.28;5062314;28;19916;-82
2023/07/31 01:36:34;;;;;;;;;;;;;;;23.39;42.16;100989.47;5060436;28;20788;-82
2023/07/31 01:39:00;;;;;;;;;;;;;;;23.36;42.11;100987.41;5060641;28;19920;-82
2023/07/31 01:41:25;;;;;;;;;;;;;;;23.37;42.28;100983.53;5071253;28;19916;-82
2023/07/31 01:43:50;;;;;;;;;;;;;;;23.35;42.53;100985.78;5064891;28;19923;-83
2023/07/31 01:46:16;;;;;;;;;;;;;;;23.29;42.49;100984.34;5066988;28;19923;-82
2023/07/31 01:48:41;;;;;;;;;;;;;;;23.28;42.64;100977.28;5062693;28;19920;-82
2023/07/31 01:51:06;;;;;;;;;;;;;;;23.29;42.78;100981.63;5066959;28;19932;-82
2023/07/31 01:53:32;;;;;;;;;;;;;;;23.27;42.62;100983.88;5065354;28;19926;-82
2023/07/31 01:55:57;;;;;;;;;;;;;;;23.19;42.80;100978.13;5068675;28;20445;-82
2023/07/31 01:58:23;;;;;;;;;;;;;;;23.15;42.82;100971.69;5068952;28;19977;-82
2023/07/31 02:00:48;;;;;;;;;;;;;;;23.10;43.14;100971.88;5062138;28;20001;-82
2023/07/31 02:03:13;;;;;;;;;;;;;;;23.07;43.13;100975.25;5065979;28;19974;-82
2023/07/31 02:05:45;;;;;;;;;;;;;;;23.06;43.10;100981.84;5067200;28;19920;-82
2023/07/31 02:08:11;;;;;;;;;;;;;;;23.06;43.29;100979.13;5070192;28;20395;-82
2023/07/31 02:10:36;;;;;;;;;;;;;;;23.03;43.39;100977.06;5070059;28;19921;-83
2023/07/31 02:13:03;;;;;;;;;;;;;;;23.03;43.49;100984.44;5068228;28;19931;-82
2023/07/31 02:15:29;;;;;;;;;;;;;;;22.99;43.48;100983.50;5063862;28;19939;-82
2023/07/31 02:17:55;;;;;;;;;;;;;;;22.97;43.45;100974.81;5066198;28;19930;-83
2023/07/31 02:20:20;;;;;;;;;;;;;;;23.01;43.25;100982.03;5069114;28;19916;-83
2023/07/31 02:22:45;;;;;;;;;;;;;;;22.98;43.50;100977.22;5066418;28;19916;-82
2023/07/31 02:25:10;;;;;;;;;;;;;;;22.95;43.80;100977.06;5065538;28;20511;-82
2023/07/31 02:27:36;;;;;;;;;;;;;;;22.95;43.47;100974.31;5061996;28;19917;-82
2023/07/31 02:30:01;;;;;;;;;;;;;;;22.96;43.53;100975.94;5064669;28;20001;-82
2023/07/31 02:32:26;;;;;;;;;;;;;;;22.95;43.58;100980.59;5069518;28;19981;-82
2023/07/31 02:34:52;;;;;;;;;;;;;;;22.97;43.83;100981.06;5065021;28;19925;-82
2023/07/31 02:37:17;;;;;;;;;;;;;;;22.93;43.90;100974.66;5056776;28;20460;-82
2023/07/31 02:39:42;;;;;;;;;;;;;;;22.96;43.75;100981.41;5063266;28;19920;-82
2023/07/31 02:42:08;;;;;;;;;;;;;;;22.95;43.82;100971.59;5065057;28;19923;-82
2023/07/31 02:44:33;;;;;;;;;;;;;;;23.01;43.72;100965.66;5067396;28;19923;-83
2023/07/31 02:46:58;;;;;;;;;;;;;;;23.09;43.88;100964.81;5066633;28;19964;-82
2023/07/31 02:49:23;;;;;;;;;;;;;;;23.16;43.54;100965.13;5069929;28;19930;-82
2023/07/31 02:51:49;;;;;;;;;;;;;;;23.21;43.62;100959.47;5062351;28;19917;-82
2023/07/31 02:54:14;;;;;;;;;;;;;;;23.25;43.61;100958.81;5065006;28;20339;-82
2023/07/31 02:56:39;;;;;;;;;;;;;;;23.26;43.38;100954.94;5065214;28;19916;-82
2023/07/31 02:59:05;;;;;;;;;;;;;;;23.24;43.51;100960.72;5064184;28;19924;-82
2023/07/31 03:01:30;;;;;;;;;;;;;;;23.25;43.57;100956.06;5066448;28;19924;-82
2023/07/31 03:03:56;;;;;;;;;;;;;;;23.26;43.55;100949.47;5067923;28;19990;-83
2023/07/31 03:06:22;;;;;;;;;;;;;;;23.23;43.57;100958.34;5066916;28;20460;-82
2023/07/31 03:08:47;;;;;;;;;;;;;;;23.21;43.75;100948.53;5068363;28;20007;-82
2023/07/31 03:11:12;;;;;;;;;;;;;;;23.24;43.72;100947.06;5063740;28;19967;-82
2023/07/31 03:13:37;;;;;;;;;;;;;;;23.27;43.69;100951.88;5064539;28;19920;-82
2023/07/31 03:16:03;;;;;;;;;;;;;;;23.26;43.56;100952.19;5067016;28;19916;-82
2023/07/31 03:18:28;;;;;;;;;;;;;;;23.23;43.64;100950.94;5065839;28;20003;-83
2023/07/31 03:20:53;;;;;;;;;;;;;;;23.17;43.76;100955.78;5060901;28;20274;-83
2023/07/31 03:23:19;;;;;;;;;;;;;;;23.09;43.77;100955.81;5067001;28;19946;-82
2023/07/31 03:26:00;;;;;;;;;;;;;;;22.99;44.28;100951.50;5063671;28;19928;-82
2023/07/31 03:28:26;;;;;;;;;;;;;;;22.94;44.56;100959.06;5063257;28;19940;-82
2023/07/31 03:30:51;;;;;;;;;;;;;;;22.94;44.42;100962.59;5067098;28;20388;-82
2023/07/31 03:33:17;;;;;;;;;;;;;;;22.95;44.28;100958.72;5066769;28;19917;-82
2023/07/31 03:35:42;;;;;;;;;;;;;;;22.90;44.48;100954.25;5063967;28;19977;-83
2023/07/31 03:38:08;;;;;;;;;;;;;;;22.86;44.72;100963.44;5063967;28;19932;-82
2023/07/31 03:40:33;;;;;;;;;;;;;;;22.78;45.19;100958.75;5060205;28;19916;-83
2023/07/31 03:42:58;;;;;;;;;;;;;;;22.70;44.73;100957.66;5063119;28;19944;-82
2023/07/31 03:45:23;;;;;;;;;;;;;;;22.63;44.96;100957.34;5064633;28;20332;-82
2023/07/31 03:47:49;;;;;;;;;;;;;;;22.57;45.29;100955.91;5064854;28;19956;-82
2023/07/31 03:50:14;;;;;;;;;;;;;;;22.51;45.32;100951.75;5067188;28;20028;-82
2023/07/31 03:52:41;;;;;;;;;;;;;;;22.44;45.11;100949.50;5063060;28;20313;-81
2023/07/31 03:55:06;;;;;;;;;;;;;;;22.44;45.19;100940.50;5063599;28;19917;-82
2023/07/31 03:57:32;;;;;;;;;;;;;;;22.40;45.46;100937.59;5063658;28;19935;-82
2023/07/31 03:59:58;;;;;;;;;;;;;;;22.36;45.59;100936.66;5061763;28;21308;-82
2023/07/31 04:02:23;;;;;;;;;;;;;;;22.29;45.82;100930.91;5059657;28;19917;-82
2023/07/31 04:04:48;;;;;;;;;;;;;;;22.23;46.07;100921.25;5066246;28;19917;-82
2023/07/31 04:07:13;;;;;;;;;;;;;;;22.22;46.11;100923.16;5063824;28;20772;-82
2023/07/31 04:09:39;;;;;;;;;;;;;;;22.20;46.30;100914.50;5066049;28;19968;-82
2023/07/31 04:12:04;;;;;;;;;;;;;;;22.17;46.77;100930.72;5063560;28;20007;-82
2023/07/31 04:14:29;;;;;;;;;;;;;;;22.17;46.86;100928.81;5063996;28;19916;-82
2023/07/31 04:16:55;;;;;;;;;;;;;;;22.16;46.73;100931.84;5067304;28;19916;-81
2023/07/31 04:19:20;;;;;;;;;;;;;;;22.15;46.58;100936.50;5066697;28;19977;-82
2023/07/31 04:21:45;;;;;;;;;;;;;;;22.06;47.05;100934.88;5064033;28;19920;-82
2023/07/31 04:24:11;;;;;;;;;;;;;;;21.97;47.31;100930.22;5062275;28;19921;-82
2023/07/31 04:26:36;;;;;;;;;;;;;;;21.96;47.34;100936.78;5071542;28;20368;-81
2023/07/31 04:29:01;;;;;;;;;;;;;;;21.99;47.34;100935.34;5072377;28;19925;-82
2023/07/31 04:31:27;;;;;;;;;;;;;;;22.06;47.88;100932.97;5069779;28;19927;-82
2023/07/31 04:33:52;;;;;;;;;;;;;;;22.12;47.30;100928.97;5070016;28;19962;-82
2023/07/31 04:36:17;;;;;;;;;;;;;;;22.13;47.37;100927.84;5067745;28;19916;-81
2023/07/31 04:38:43;;;;;;;;;;;;;;;22.16;47.86;100929.13;5069166;28;19970;-81
2023/07/31 04:41:08;;;;;;;;;;;;;;;22.15;47.85;100919.34;5069644;28;19936;-81
2023/07/31 04:43:33;;;;;;;;;;;;;;;22.15;47.61;100924.78;5065171;28;19921;-81
2023/07/31 04:45:59;;;;;;;;;;;;;;;22.19;47.69;100928.47;5068460;28;19916;-81
2023/07/31 04:48:24;;;;;;;;;;;;;;;22.21;47.80;100928.94;5065903;28;19927;-81
2023/07/31 04:50:49;;;;;;;;;;;;;;;22.22;47.72;100923.16;5065979;28;19925;-82
2023/07/31 04:53:14;;;;;;;;;;;;;;;22.26;47.70;100917.88;5068560;28;19954;-81
2023/07/31 04:55:40;;;;;;;;;;;;;;;22.28;47.85;100910.19;5071379;28;19950;-82
2023/07/31 04:58:05;;;;;;;;;;;;;;;22.29;48.31;100906.31;5067478;28;19920;-82
2023/07/31 05:00:30;;;;;;;;;;;;;;;22.30;47.97;100908.72;5071686;28;20008;-81
2023/07/31 05:02:56;;;;;;;;;;;;;;;22.28;48.14;100902.00;5068905;28;20055;-83
2023/07/31 05:05:21;;;;;;;;;;;;;;;22.29;48.28;100900.88;5068994;28;19924;-81
2023/07/31 05:07:46;;;;;;;;;;;;;;;22.37;48.32;100902.78;5067083;28;20388;-82
2023/07/31 05:10:12;;;;;;;;;;;;;;;22.40;47.95;100907.56;5069989;28;19924;-81
2023/07/31 05:12:37;;;;;;;;;;;;;;;22.31;48.66;100907.59;5070988;28;19969;-81
2023/07/31 05:15:03;;;;;;;;;;;;;;;22.28;48.98;100907.44;5067470;28;20391;-82
2023/07/31 05:17:28;;;;;;;;;;;;;;;22.29;48.66;100901.66;5068391;28;20380;-82
2023/07/31 05:19:53;;;;;;;;;;;;;;;22.33;48.79;100896.38;5067114;28;19948;-82
2023/07/31 05:22:18;;;;;;;;;;;;;;;22.37;48.76;100904.69;5065213;28;19916;-82
2023/07/31 05:24:44;;;;;;;;;;;;;;;22.39;48.63;100895.06;5065720;28;19927;-82
2023/07/31 05:27:09;;;;;;;;;;;;;;;22.47;48.64;100894.25;5066654;28;19992;-82
2023/07/31 05:29:35;;;;;;;;;;;;;;;22.50;48.70;100884.63;5062702;28;20444;-82
2023/07/31 05:32:00;;;;;;;;;;;;;;;22.55;48.52;100885.22;5069131;28;19920;-82
2023/07/31 05:34:25;;;;;;;;;;;;;;;22.59;48.49;100882.66;5069755;28;20329;-82
2023/07/31 05:36:51;;;;;;;;;;;;;;;22.63;48.84;100875.44;5071831;28;20443;-82
2023/07/31 05:39:16;;;;;;;;;;;;;;;22.68;48.77;100880.72;5065784;28;19970;-82
2023/07/31 05:41:41;;;;;;;;;;;;;;;22.70;48.80;100870.25;5070275;28;19917;-81
2023/07/31 05:44:07;;;;;;;;;;;;;;;22.76;48.52;100873.59;5070234;28;19947;-81
2023/07/31 05:46:32;;;;;;;;;;;;;;;22.77;48.70;100872.47;5067064;28;19921;-82
2023/07/31 05:49:00;;;;;;;;;;;;;;;22.81;48.78;100874.25;5068372;28;19921;-82
2023/07/31 05:51:25;;;;;;;;;;;;;;;22.89;49.59;100876.16;5068180;28;19927;-82
2023/07/31 05:53:51;;;;;;;;;;;;;;;23.01;48.57;100869.22;5067750;28;19920;-81
2023/07/31 05:56:16;;;;;;;;;;;;;;;23.09;48.40;100869.16;5066770;28;20503;-82
2023/07/31 05:58:41;;;;;;;;;;;;;;;23.12;48.30;100882.16;5068849;28;20007;-83
2023/07/31 06:01:07;;;;;;;;;;;;;;;23.05;48.54;100875.63;5065954;28;19966;-82
2023/07/31 06:03:32;;;;;;;;;;;;;;;22.99;48.43;100875.00;5069385;28;19917;-82
2023/07/31 06:05:57;;;;;;;;;;;;;;;22.95;48.61;100882.22;5068190;28;19920;-81
2023/07/31 06:08:22;;;;;;;;;;;;;;;22.95;48.81;100884.97;5066195;28;20328;-83
2023/07/31 06:10:48;;;;;;;;;;;;;;;23.03;48.74;100881.41;5064850;28;20838;-82
2023/07/31 06:13:13;;;;;;;;;;;;;;;22.99;49.03;100893.34;5063604;28;20917;-82
2023/07/31 06:15:38;;;;;;;;;;;;;;;22.95;48.97;100884.97;5062895;28;20414;-83
2023/07/31 06:18:07;;;;;;;;;;;;;;;22.99;48.84;100882.41;5066525;28;19925;-83
2023/07/31 06:20:32;;;;;;;;;;;;;;;23.03;49.05;100880.59;5069342;28;19916;-82
2023/07/31 06:22:58;;;;;;;;;;;;;;;23.05;49.73;100879.16;5065510;28;19965;-83
2023/07/31 06:25:23;;;;;;;;;;;;;;;23.13;48.67;100883.75;5064002;28;19916;-82
2023/07/31 06:27:48;;;;;;;;;;;;;;;23.19;48.79;100876.19;5065848;28;20277;-82
2023/07/31 06:30:14;;;;;;;;;;;;;;;23.29;49.07;100880.47;5061349;28;19928;-82
2023/07/31 06:32:40;;;;;;;;;;;;;;;23.38;48.44;100886.69;5067313;28;20384;-82
2023/07/31 06:35:06;;;;;;;;;;;;;;;23.41;48.64;100886.03;5068191;28;19927;-83
2023/07/31 06:37:31;;;;;;;;;;;;;;;23.33;48.44;100878.66;5062485;28;19920;-83
2023/07/31 06:39:56;;;;;;;;;;;;;;;23.22;48.84;100894.66;5061332;28;19916;-83
2023/07/31 06:42:22;;;;;;;;;;;;;;;23.24;48.79;100888.88;5064398;28;20521;-82
2023/07/31 06:44:47;;;;;;;;;;;;;;;23.21;49.04;100899.34;5067956;28;19965;-82
2023/07/31 06:47:12;;;;;;;;;;;;;;;23.29;48.93;100884.00;5069102;28;19963;-82
2023/07/31 06:49:38;;;;;;;;;;;;;;;23.40;48.68;100887.16;5066990;28;20297;-83
2023/07/31 06:52:03;;;;;;;;;;;;;;;23.36;48.93;100880.75;5066676;28;20510;-82
2023/07/31 06:54:28;;;;;;;;;;;;;;;23.38;49.00;100875.75;5067093;28;19924;-82
2023/07/31 06:56:54;;;;;;;;;;;;;;;23.35;48.62;100868.22;5066731;28;19950;-82
2023/07/31 06:59:19;;;;;;;;;;;;;;;23.34;49.04;100869.34;5059570;28;19928;-82
2023/07/31 07:01:44;;;;;;;;;;;;;;;23.38;49.18;100873.84;5061218;28;19939;-83
2023/07/31 07:04:10;;;;;;;;;;;;;;;23.45;48.98;100868.63;5063058;28;19920;-82
2023/07/31 07:06:35;;;;;;;;;;;;;;;23.56;48.88;100866.31;5068903;28;19917;-83
2023/07/31 07:09:00;;;;;;;;;;;;;;;23.57;48.91;100872.63;5063074;28;20336;-83
2023/07/31 07:11:26;;;;;;;;;;;;;;;23.62;48.96;100872.41;5064238;28;19981;-82
2023/07/31 07:13:51;;;;;;;;;;;;;;;23.71;48.53;100868.50;5062403;28;20375;-84
2023/07/31 07:16:17;;;;;;;;;;;;;;;23.81;48.79;100861.81;5063202;28;20364;-85
2023/07/31 07:18:42;;;;;;;;;;;;;;;23.93;48.62;100863.81;5063064;28;20396;-83
2023/07/31 07:21:08;;;;;;;;;;;;;;;24.02;48.65;100862.59;5067041;28;20509;-82
2023/07/31 07:23:33;;;;;;;;;;;;;;;24.21;48.41;100859.34;5060465;28;20388;-86
2023/07/31 07:25:59;;;;;;;;;;;;;;;24.34;48.07;100852.81;5058576;28;19973;-85
2023/07/31 07:28:24;;;;;;;;;;;;;;;24.37;47.75;100862.28;5068838;28;19939;-84
2023/07/31 07:30:55;;;;;;;;;;;;;;;24.34;47.59;100854.75;5066525;28;19920;-84
2023/07/31 07:33:21;;;;;;;;;;;;;;;24.27;47.73;100851.75;5066415;28;20373;-84
2023/07/31 07:35:46;;;;;;;;;;;;;;;24.27;47.68;100855.28;5065903;28;19917;-84
2023/07/31 07:38:13;;;;;;;;;;;;;;;24.31;47.79;100853.50;5064361;28;19921;-82
2023/07/31 07:40:39;;;;;;;;;;;;;;;24.32;47.58;100848.81;5068366;28;20540;-85
2023/07/31 07:43:04;;;;;;;;;;;;;;;24.34;47.67;100846.53;5062051;28;19924;-84
2023/07/31 07:45:30;;;;;;;;;;;;;;;24.36;47.51;100847.00;5060491;28;19921;-82
2023/07/31 07:47:55;;;;;;;;;;;;;;;24.33;47.76;100842.19;5061770;28;19920;-82
2023/07/31 07:50:20;;;;;;;;;;;;;;;24.33;47.43;100845.72;5062090;28;19928;-81
2023/07/31 07:52:46;;;;;;;;;;;;;;;24.33;47.46;100848.47;5063160;28;20007;-82
2023/07/31 07:55:11;;;;;;;;;;;;;;;24.34;47.56;100841.84;5063141;28;19960;-85
2023/07/31 07:57:36;;;;;;;;;;;;;;;24.39;47.53;100844.38;5066334;28;19938;-85
2023/07/31 08:00:02;;;;;;;;;;;;;;;24.45;47.36;100846.91;5061870;28;20530;-84
2023/07/31 08:02:27;;;;;;;;;;;;;;;24.47;47.12;100839.16;5067361;28;20388;-84
2023/07/31 08:04:53;;;;;;;;;;;;;;;24.43;47.08;100839.03;5074369;28;19942;-84
2023/07/31 08:07:18;;;;;;;;;;;;;;;24.51;47.14;100829.13;5067234;28;19923;-82
2023/07/31 08:09:43;;;;;;;;;;;;;;;24.56;46.92;100826.94;5067793;28;19939;-84
2023/07/31 08:12:08;;;;;;;;;;;;;;;24.67;46.95;100827.31;5066161;28;19981;-82
2023/07/31 08:14:34;;;;;;;;;;;;;;;24.73;46.64;100827.88;5073460;28;19967;-81
2023/07/31 08:17:00;;;;;;;;;;;;;;;24.74;46.77;100822.06;5071133;28;19944;-83
2023/07/31 08:19:25;;;;;;;;;;;;;;;24.82;46.49;100828.59;5068892;28;20434;-86
2023/07/31 08:21:50;;;;;;;;;;;;;;;24.83;46.42;100824.69;5071942;28;19970;-85
2023/07/31 08:24:16;;;;;;;;;;;;;;;24.80;46.49;100826.19;5067720;28;19920;-85
2023/07/31 08:26:41;;;;;;;;;;;;;;;24.90;46.44;100817.50;5069597;28;19922;-83
2023/07/31 08:29:07;;;;;;;;;;;;;;;24.97;46.49;100815.00;5067280;28;20345;-84
2023/07/31 08:31:32;;;;;;;;;;;;;;;25.10;46.32;100815.00;5066470;28;19928;-85
2023/07/31 08:33:57;;;;;;;;;;;;;;;25.32;46.08;100817.28;5067720;28;19955;-82
2023/07/31 08:36:23;;;;;;;;;;;;;;;25.48;45.66;100817.31;5067932;28;19916;-85
2023/07/31 08:38:49;;;;;;;;;;;;;;;25.54;45.37;100811.28;5068127;28;19916;-86
2023/07/31 08:41:16;;;;;;;;;;;;;;;25.61;45.08;100816.16;5064472;28;20014;-87
2023/07/31 08:43:42;;;;;;;;;;;;;;;25.67;45.19;100812.00;5066445;28;19928;-84
2023/07/31 08:46:08;;;;;;;;;;;;;;;25.86;44.93;100814.16;5065498;28;19924;-83
2023/07/31 08:48:35;;;;;;;;;;;;;;;25.98;44.65;100814.09;5062708;28;19921;-87
2023/07/31 08:51:00;;;;;;;;;;;;;;;26.07;44.46;100809.25;5060598;28;19927;-87
2023/07/31 08:53:26;;;;;;;;;;;;;;;26.16;44.58;100804.41;5069253;28;19917;-87
2023/07/31 08:55:52;;;;;;;;;;;;;;;26.11;44.33;100807.41;5068827;28;20573;-85
2023/07/31 08:58:18;;;;;;;;;;;;;;;26.06;44.17;100804.13;5067490;28;19965;-85
2023/07/31 09:00:45;;;;;;;;;;;;;;;26.01;44.22;100799.66;5066836;28;19924;-88
2023/07/31 09:03:15;;;;;;;;;;;;;;;26.02;44.28;100797.72;5060927;28;19997;-84
2023/07/31 09:05:42;;;;;;;;;;;;;;;26.06;44.21;100788.44;5062454;28;19917;-85
2023/07/31 09:08:09;;;;;;;;;;;;;;;26.07;44.36;100784.56;5065385;28;19931;-85
2023/07/31 09:10:34;;;;;;;;;;;;;;;26.12;44.36;100787.03;5069068;28;19981;-90
2023/07/31 09:13:00;;;;;;;;;;;;;;;26.11;44.37;100792.88;5073403;28;20420;-90
2023/07/31 09:15:25;;;;;;;;;;;;;;;26.11;44.05;100793.69;5071481;28;20464;-86
2023/07/31 09:17:58;;;;;;;;;;;;;;;26.19;44.27;100787.22;5065523;28;19917;-87
2023/07/31 09:20:24;;;;;;;;;;;;;;;26.37;44.34;100786.91;5067385;28;20025;-88
2023/07/31 09:22:49;;;;;;;;;;;;;;;26.53;44.17;100786.91;5063570;28;20426;-83
2023/07/31 09:25:15;;;;;;;;;;;;;;;26.60;43.63;100792.59;5064729;28;19924;-82
2023/07/31 09:27:54;;;;;;;;;;;;;;;26.55;43.61;100788.16;5064793;28;20111;-85
2023/07/31 09:30:20;;;;;;;;;;;;;;;26.49;43.45;100784.88;5068192;28;19978;-85
2023/07/31 09:32:46;;;;;;;;;;;;;;;26.42;43.45;100790.22;5068541;28;19944;-88
2023/07/31 09:35:30;;;;;;;;;;;;;;;26.36;43.43;100791.59;5061450;28;19921;-85
2023/07/31 09:37:57;;;;;;;;;;;;;;;26.38;43.50;100794.00;5062335;28;20353;-87
2023/07/31 09:40:26;;;;;;;;;;;;;;;26.26;43.54;100792.09;5066151;28;19931;-85
2023/07/31 09:42:51;;;;;;;;;;;;;;;26.16;43.90;100782.44;5065440;28;20059;-85
2023/07/31 09:45:18;;;;;;;;;;;;;;;26.17;43.81;100777.72;5065020;28;20019;-85
2023/07/31 09:47:48;;;;;;;;;;;;;;;26.21;43.64;100781.38;5063936;28;19917;-88
2023/07/31 09:50:14;;;;;;;;;;;;;;;26.24;43.80;100777.94;5065691;28;19928;-91
2023/07/31 09:52:39;;;;;;;;;;;;;;;26.33;43.41;100780.50;5063906;28;20427;-85
2023/07/31 09:55:05;;;;;;;;;;;;;;;26.29;43.34;100783.16;5066668;28;19924;-84
2023/07/31 09:57:31;;;;;;;;;;;;;;;26.36;43.44;100768.81;5065821;28;19920;-85
2023/07/31 09:59:57;;;;;;;;;;;;;;;26.46;43.07;100769.09;5063893;28;19977;-86
2023/07/31 10:02:23;;;;;;;;;;;;;;;26.60;43.06;100770.63;5068425;28;19916;-90
2023/07/31 10:04:51;;;;;;;;;;;;;;;26.50;43.00;100770.00;5062707;28;19924;-85
2023/07/31 10:07:18;;;;;;;;;;;;;;;26.48;43.21;100761.31;5070150;28;19920;-88
2023/07/31 10:09:45;;;;;;;;;;;;;;;26.48;43.03;100771.50;5072257;28;19919;-90
2023/07/31 10:12:12;;;;;;;;;;;;;;;26.40;43.34;100762.28;5066587;28;19927;-86
2023/07/31 10:14:38;;;;;;;;;;;;;;;26.37;43.12;100756.69;5061594;28;20529;-89
2023/07/31 10:17:05;;;;;;;;;;;;;;;26.34;43.33;100751.88;5070942;28;19916;-89
2023/07/31 10:19:30;;;;;;;;;;;;;;;26.33;43.59;100747.53;5067901;28;19924;-89
2023/07/31 10:21:57;;;;;;;;;;;;;;;26.26;43.43;100745.41;5072815;28;20039;-87
2023/07/31 10:24:23;;;;;;;;;;;;;;;26.20;43.74;100747.63;5074188;28;19916;-90
2023/07/31 10:26:49;;;;;;;;;;;;;;;26.23;43.67;100756.31;5072915;28;19928;-90
2023/07/31 10:29:16;;;;;;;;;;;;;;;26.19;43.87;100745.22;5067688;28;20007;-88
2023/07/31 10:31:41;;;;;;;;;;;;;;;26.12;44.22;100748.59;5069463;28;19943;-89
2023/07/31 10:34:07;;;;;;;;;;;;;;;26.09;44.24;100754.00;5061703;28;20381;-83
2023/07/31 10:36:33;;;;;;;;;;;;;;;25.97;44.40;100745.81;5069569;28;20404;-89
2023/07/31 10:38:58;;;;;;;;;;;;;;;25.90;44.64;100740.94;5072076;28;19925;-89
2023/07/31 10:41:33;;;;;;;;;;;;;;;25.96;44.68;100750.50;5062371;28;19936;-89
2023/07/31 10:43:59;;;;;;;;;;;;;;;26.00;44.73;100745.13;5063951;28;20521;-85
2023/07/31 10:46:24;;;;;;;;;;;;;;;26.03;44.48;100744.41;5054870;28;19921;-86
2023/07/31 10:48:57;;;;;;;;;;;;;;;26.03;44.46;100734.25;5057186;28;19921;-85
2023/07/31 10:51:22;;;;;;;;;;;;;;;26.08;44.69;100735.94;5057724;28;19936;-84
2023/07/31 10:53:48;;;;;;;;;;;;;;;26.17;44.41;100731.84;5061642;28;19921;-84
2023/07/31 10:56:18;;;;;;;;;;;;;;;26.20;44.53;100722.09;5062257;28;21802;-88
2023/07/31 10:58:44;;;;;;;;;;;;;;;26.25;44.42;100723.81;5056014;28;19969;-86
2023/07/31 11:01:09;;;;;;;;;;;;;;;26.34;44.24;100722.47;5068209;28;20411;-90
2023/07/31 11:03:42;;;;;;;;;;;;;;;26.43;44.07;100717.63;5062629;28;20471;-88
2023/07/31 11:06:07;;;;;;;;;;;;;;;26.45;43.83;100720.81;5063350;28;19971;-90
2023/07/31 11:08:34;;;;;;;;;;;;;;;26.43;43.79;100719.56;5066460;28;19921;-90
2023/07/31 11:11:02;;;;;;;;;;;;;;;26.35;43.58;100723.28;5060243;28;19932;-86
2023/07/31 11:13:28;;;;;;;;;;;;;;;26.34;43.29;100708.72;5056409;28;19920;-89
2023/07/31 11:15:54;;;;;;;;;;;;;;;26.20;43.55;100720.16;5060549;28;19989;-86
2023/07/31 11:18:19;;;;;;;;;;;;;;;26.12;43.64;100726.63;5059225;28;19968;-85
2023/07/31 11:20:44;;;;;;;;;;;;;;;26.03;43.57;100709.53;5062828;28;20446;-85
2023/07/31 11:23:10;;;;;;;;;;;;;;;25.96;43.68;100703.84;5067587;28;19920;-89
2023/07/31 11:25:36;;;;;;;;;;;;;;;25.93;43.87;100706.50;5062127;28;19963;-89
2023/07/31 11:28:12;;;;;;;;;;;;;;;25.83;44.40;100703.13;5062519;28;19931;-85
2023/07/31 11:30:38;;;;;;;;;;;;;;;25.74;44.52;100718.16;5069160;28;19973;-87
2023/07/31 11:33:04;;;;;;;;;;;;;;;25.60;45.52;100716.59;5069041;28;20296;-86
2023/07/31 11:35:33;;;;;;;;;;;;;;;25.55;45.43;100708.63;5064089;28;20036;-86
2023/07/31 11:37:58;;;;;;;;;;;;;;;25.44;45.52;100712.19;5063592;28;20506;-86
2023/07/31 11:40:34;;;;;;;;;;;;;;;25.40;45.77;100717.59;5063342;28;19921;-85
2023/07/31 11:43:03;;;;;;;;;;;;;;;25.37;46.19;100720.25;5059465;28;19920;-85
2023/07/31 11:45:29;;;;;;;;;;;;;;;25.42;46.57;100715.31;5060191;28;20017;-88
2023/07/31 11:47:56;;;;;;;;;;;;;;;25.45;46.25;100711.84;5062250;28;20463;-84
2023/07/31 11:50:21;;;;;;;;;;;;;;;25.55;45.92;100703.13;5061949;28;20022;-86
2023/07/31 11:52:48;;;;;;;;;;;;;;;25.65;46.02;100701.03;5058737;28;20016;-84
2023/07/31 11:55:15;;;;;;;;;;;;;;;25.63;45.80;100697.84;5057658;28;19931;-86
2023/07/31 11:57:41;;;;;;;;;;;;;;;25.59;45.95;100709.50;5063017;28;19917;-86
2023/07/31 12:00:10;;;;;;;;;;;;;;;25.61;46.05;100695.44;5063140;28;19970;-86
2023/07/31 12:02:36;;;;;;;;;;;;;;;25.66;45.81;100686.94;5066417;28;20395;-85
2023/07/31 12:05:02;;;;;;;;;;;;;;;25.71;45.65;100692.22;5067472;28;19916;-89
2023/07/31 12:07:27;;;;;;;;;;;;;;;25.79;45.56;100680.28;5068163;28;20125;-89
2023/07/31 12:09:56;;;;;;;;;;;;;;;25.88;45.19;100685.63;5063136;28;20520;-86
2023/07/31 12:12:22;;;;;;;;;;;;;;;25.99;45.22;100683.13;5069067;28;20032;-91
2023/07/31 12:14:48;;;;;;;;;;;;;;;26.13;44.97;100681.53;5058980;28;19920;-86
2023/07/31 12:17:14;;;;;;;;;;;;;;;26.17;44.95;100696.16;5061203;28;19931;-90
2023/07/31 12:19:39;;;;;;;;;;;;;;;26.14;44.76;100680.38;5067077;28;20073;-89
2023/07/31 12:22:14;;;;;;;;;;;;;;;26.08;45.03;100679.06;5070641;28;19979;-93
2023/07/31 12:24:40;;;;;;;;;;;;;;;25.98;44.93;100671.34;5075503;28;19920;-96
2023/07/31 12:27:10;;;;;;;;;;;;;;;25.82;45.34;100674.09;5068513;28;19932;-87
2023/07/31 12:29:36;;;;;;;;;;;;;;;25.82;45.76;100681.50;5060413;28;19925;-85